Bisbee, North Dakota
Current Conditions -  °F | °C
As of 2:35 PM on Tuesday 21 Oct 2014 (Local Time) from K9D7 Reporting Station
Scattered Clouds Scattered Clouds  
Wind Chill: 64°   Ceiling: Unl
Heat Index: 64°   Visibility: 10mi
Dew Point: 41°   Wind: 21mph
Humidity: 42%   Direction: 150°SSE
Pressure: 29.77"   Gusts: 30mph
Location:  48.63°N, 99.38°W
Report Text: K9D7 211935Z AUTO 15018G26KT 10SM SCT021 18/05 A2977 RMK AO2
Loading
Personal Weather Stations






























Interactive Weather Map
Tropical Storm Tracking
New forecast layout! Learn more

10-Day Weather Forecast

Advertisements
Track Severe Weather on mobile